Time;durP1;ratioP1;P1;durP2;ratioP2;P2;SDS_P1;SDS_P2;PMS_P1;PMS_P2;Temp;Humidity;BMP_temperature;BMP_pressure;BME280_temperature;BME280_humidity;BME280_pressure;Samples;Min_cycle;Max_cycle;Signal;HPM_P1;HPM_P2
2020/12/13 00:01:29;;;;;;;;;;;8.40;99.90;;;7.80;80.77;100730.50;4172280;28;20388;-68
2020/12/13 00:03:29;;;;;;;;;;;8.40;99.90;;;7.54;82.16;100724.16;4169307;28;19947;-68
2020/12/13 00:05:30;;;;;;;;;;;8.30;99.90;;;7.53;82.34;100725.09;4188782;28;19909;-68
2020/12/13 00:07:31;;;;;;;;;;;8.30;99.90;;;7.49;83.11;100727.19;4173528;28;19909;-68
2020/12/13 00:09:32;;;;;;;;;;;8.20;99.90;;;7.56;81.51;100724.84;4173444;28;19912;-68
2020/12/13 00:11:35;;;;;;;;;;;8.20;99.90;;;7.55;82.01;100729.28;4173236;28;19962;-68
2020/12/13 00:13:36;;;;;;;;;;;8.20;99.90;;;7.46;81.74;100734.50;4173037;28;20300;-68
2020/12/13 00:15:37;;;;;;;;;;;8.20;99.90;;;7.38;82.07;100729.94;4173433;28;19909;-68
2020/12/13 00:17:38;;;;;;;;;;;8.10;99.90;;;7.21;83.55;100725.34;4155718;28;20381;-68
2020/12/13 00:19:39;;;;;;;;;;;8.00;99.90;;;7.29;82.54;100725.50;4155733;28;19909;-68
2020/12/13 00:21:39;;;;;;;;;;;8.00;99.90;;;7.28;83.46;100733.50;4173471;28;20339;-68
2020/12/13 00:23:41;;;;;;;;;;;8.00;99.90;;;7.06;84.18;100737.19;4171973;28;19913;-68
2020/12/13 00:25:42;;;;;;;;;;;7.90;99.90;;;7.16;83.88;100717.91;4171601;28;19955;-68
2020/12/13 00:27:43;;;;;;;;;;;7.90;99.90;;;7.29;83.44;100732.56;4188585;28;20311;-68
2020/12/13 00:29:43;;;;;;;;;;;7.80;99.90;;;7.23;83.39;100710.28;4172918;28;20222;-68
2020/12/13 00:31:44;;;;;;;;;;;7.90;99.90;;;7.08;84.81;100725.59;4173366;28;19909;-68
2020/12/13 00:33:45;;;;;;;;;;;7.80;99.90;;;7.02;85.71;100725.28;4173050;28;19909;-68
2020/12/13 00:35:46;;;;;;;;;;;7.80;99.90;;;7.08;85.36;100716.88;4172293;28;19920;-68
2020/12/13 00:37:46;;;;;;;;;;;7.80;99.90;;;6.96;85.19;100717.97;4169885;28;19909;-68
2020/12/13 00:39:47;;;;;;;;;;;7.70;99.90;;;6.84;86.48;100701.50;4169375;28;19909;-68
2020/12/13 00:41:55;;;;;;;;;;;7.60;99.90;;;6.97;86.79;100709.13;4170344;28;19909;-68
2020/12/13 00:43:55;;;;;;;;;;;7.60;99.90;;;7.04;86.67;100710.25;4170582;28;20026;-69
2020/12/13 00:45:56;;;;;;;;;;;7.70;99.90;;;7.02;86.55;100704.31;4169527;28;19917;-69
2020/12/13 00:47:57;;;;;;;;;;;7.70;99.90;;;6.90;87.27;100702.78;4169274;28;19984;-68
2020/12/13 00:49:58;;;;;;;;;;;7.60;99.90;;;6.92;86.86;100691.19;4170297;28;19913;-68
2020/12/13 00:52:03;;;;;;;;;;;7.60;99.90;;;6.94;87.50;100693.66;4170461;28;20435;-68
2020/12/13 00:54:03;;;;;;;;;;;7.70;99.90;;;6.74;87.79;100694.56;4160208;28;19987;-68
2020/12/13 00:56:04;;;;;;;;;;;7.60;99.90;;;6.84;87.63;100695.44;4166033;28;19909;-68
2020/12/13 00:58:05;;;;;;;;;;;7.60;99.90;;;6.85;88.22;100697.91;4170473;28;20292;-68
2020/12/13 01:00:06;;;;;;;;;;;7.60;99.90;;;6.88;88.07;100691.56;4170381;28;19913;-68
2020/12/13 01:02:07;;;;;;;;;;;7.60;99.90;;;6.82;88.30;100681.63;4169029;28;20368;-68
2020/12/13 01:04:07;;;;;;;;;;;7.60;99.90;;;6.71;88.43;100685.19;4167820;28;19920;-68
2020/12/13 01:06:08;;;;;;;;;;;7.50;99.90;;;6.82;89.10;100681.63;4170265;28;19912;-68
2020/12/13 01:08:10;;;;;;;;;;;7.60;99.90;;;6.98;88.87;100705.56;4168940;28;20393;-68
2020/12/13 01:10:10;;;;;;;;;;;7.60;99.90;;;6.94;89.39;100704.16;4185363;28;20010;-68
2020/12/13 01:12:11;;;;;;;;;;;7.60;99.90;;;7.05;88.86;100696.16;4168660;28;20550;-68
2020/12/13 01:14:12;;;;;;;;;;;7.60;99.90;;;6.94;88.76;100691.88;4168712;28;19917;-68
2020/12/13 01:16:15;;;;;;;;;;;7.60;99.90;;;6.89;89.02;100693.25;4170254;28;20420;-68
2020/12/13 01:18:16;;;;;;;;;;;7.60;99.90;;;6.92;89.75;100692.97;4168879;28;19913;-68
2020/12/13 01:20:17;;;;;;;;;;;7.60;99.90;;;6.98;90.15;100695.06;4168776;28;19979;-68
2020/12/13 01:22:17;;;;;;;;;;;7.60;99.90;;;6.91;89.95;100691.31;4184918;28;19934;-68
2020/12/13 01:24:18;;;;;;;;;;;7.60;99.90;;;6.96;90.08;100692.56;4169968;28;19962;-68
2020/12/13 01:26:20;;;;;;;;;;;7.60;99.90;;;6.95;89.82;100682.22;4151961;28;19910;-68
2020/12/13 01:28:21;;;;;;;;;;;7.60;99.90;;;7.00;90.52;100686.09;4168722;28;19908;-68
2020/12/13 01:30:22;;;;;;;;;;;7.70;99.90;;;7.07;89.49;100678.53;4169903;28;19909;-68
2020/12/13 01:32:22;;;;;;;;;;;7.70;99.90;;;7.10;89.78;100678.25;4167679;28;19909;-68
2020/12/13 01:34:23;;;;;;;;;;;7.70;99.90;;;7.12;89.78;100694.69;4160756;28;19909;-68
2020/12/13 01:36:24;;;;;;;;;;;7.70;99.90;;;7.07;89.86;100671.50;4168727;28;19962;-68
2020/12/13 01:38:25;;;;;;;;;;;7.80;99.90;;;7.08;89.76;100675.75;4185054;28;19912;-68
2020/12/13 01:40:25;;;;;;;;;;;7.80;99.90;;;7.08;89.54;100675.75;4168500;28;19908;-68
2020/12/13 01:42:26;;;;;;;;;;;7.80;99.90;;;7.10;90.23;100678.25;4168147;28;20327;-68
2020/12/13 01:44:34;;;;;;;;;;;7.80;99.90;;;7.10;90.23;100678.25;4168675;28;20355;-68
2020/12/13 01:46:37;;;;;;;;;;;7.80;99.90;;;7.10;89.73;100680.88;4184450;28;20454;-68
2020/12/13 01:48:38;;;;;;;;;;;7.80;99.90;;;7.04;90.42;100674.38;4168224;28;20003;-68
2020/12/13 01:50:54;;;;;;;;;;;7.80;99.90;;;7.26;89.90;100678.53;4168364;28;20434;-68
2020/12/13 01:53:13;;;;;;;;;;;7.80;99.90;;;7.30;89.64;100676.47;4171519;28;20470;-68
2020/12/13 01:55:18;;;;;;;;;;;7.90;99.90;;;7.23;89.71;100674.41;4147439;28;19909;-68
2020/12/13 01:57:19;;;;;;;;;;;7.90;99.90;;;7.29;89.53;100678.25;4169526;28;19916;-68
2020/12/13 01:59:21;;;;;;;;;;;7.90;99.90;;;7.22;89.75;100671.94;4151759;28;19910;-69
2020/12/13 02:01:23;;;;;;;;;;;7.90;99.90;;;7.34;89.77;100676.09;4151489;28;20306;-68
2020/12/13 02:03:25;;;;;;;;;;;7.90;99.90;;;7.32;89.22;100667.50;4165279;28;19913;-67
2020/12/13 02:05:26;;;;;;;;;;;7.90;99.90;;;7.32;89.42;100670.13;4168137;28;19913;-68
2020/12/13 02:07:27;;;;;;;;;;;7.90;99.90;;;7.22;89.72;100670.13;4167884;28;19923;-68
2020/12/13 02:09:28;;;;;;;;;;;7.90;99.90;;;7.22;90.34;100669.31;4184435;28;19908;-68
2020/12/13 02:11:31;;;;;;;;;;;7.90;99.90;;;7.27;90.19;100679.38;4167794;28;19913;-68
2020/12/13 02:13:32;;;;;;;;;;;7.90;99.90;;;7.33;89.94;100677.03;4183900;28;19921;-67
2020/12/13 02:15:34;;;;;;;;;;;7.90;99.90;;;7.42;89.56;100665.72;4167989;28;19909;-68
2020/12/13 02:17:36;;;;;;;;;;;8.00;99.90;;;7.34;90.28;100668.22;4184311;28;19908;-68
2020/12/13 02:19:37;;;;;;;;;;;8.00;99.90;;;7.33;90.68;100660.47;4167910;28;19915;-68
2020/12/13 02:21:45;;;;;;;;;;;8.00;99.90;;;7.36;89.81;100665.44;4184288;28;19908;-68
2020/12/13 02:23:46;;;;;;;;;;;8.00;99.90;;;7.47;89.62;100666.13;4167603;28;19917;-68
2020/12/13 02:25:47;;;;;;;;;;;8.00;99.90;;;7.44;90.53;100678.69;4155535;28;19909;-68
2020/12/13 02:27:49;;;;;;;;;;;8.00;99.90;;;7.45;90.19;100660.19;4168939;28;20016;-68
2020/12/13 02:29:51;;;;;;;;;;;8.10;99.90;;;7.27;91.03;100650.50;4167550;28;20058;-68
2020/12/13 02:31:51;;;;;;;;;;;8.00;99.90;;;7.28;91.40;100649.56;4168791;28;19909;-68
2020/12/13 02:33:52;;;;;;;;;;;8.00;99.90;;;7.27;91.49;100640.84;4168713;28;19940;-69
2020/12/13 02:35:53;;;;;;;;;;;8.00;99.90;;;7.26;92.24;100648.88;4167859;28;19909;-68
2020/12/13 02:37:54;;;;;;;;;;;8.00;99.90;;;7.22;92.44;100638.66;4184143;28;19909;-68
2020/12/13 02:39:54;;;;;;;;;;;7.90;99.90;;;7.33;90.87;100634.22;4168817;28;19931;-69
2020/12/13 02:42:00;;;;;;;;;;;8.00;99.90;;;7.36;91.71;100634.78;4168208;28;19955;-68
2020/12/13 02:44:02;;;;;;;;;;;8.00;99.90;;;7.36;92.21;100624.28;4168593;28;19913;-68
2020/12/13 02:46:03;;;;;;;;;;;8.00;99.90;;;7.39;91.88;100629.25;4168850;28;20387;-68
2020/12/13 02:48:03;;;;;;;;;;;8.00;99.90;;;7.46;91.26;100630.38;4151138;28;19910;-68
2020/12/13 02:50:04;;;;;;;;;;;8.10;99.90;;;7.34;91.33;100612.28;4167335;28;19917;-68
2020/12/13 02:52:05;;;;;;;;;;;8.10;99.90;;;7.33;92.18;100615.84;4183858;28;19956;-68
2020/12/13 02:54:06;;;;;;;;;;;8.10;99.90;;;7.36;92.05;100613.78;4174506;28;19909;-68
2020/12/13 02:56:06;;;;;;;;;;;8.00;99.90;;;7.44;91.37;100607.84;4164680;28;19916;-69
2020/12/13 02:58:07;;;;;;;;;;;8.10;99.90;;;7.57;91.20;100617.09;4167612;28;19909;-69
2020/12/13 03:00:08;;;;;;;;;;;8.10;99.90;;;7.38;91.73;100617.09;4183369;28;19912;-69
2020/12/13 03:02:09;;;;;;;;;;;8.10;99.90;;;7.49;92.34;100603.84;4150609;28;20284;-69
2020/12/13 03:04:09;;;;;;;;;;;8.10;99.90;;;7.45;91.93;100607.72;4164554;28;19967;-67
2020/12/13 03:06:10;;;;;;;;;;;8.20;99.90;;;7.50;91.95;100607.28;4183554;28;19913;-67
2020/12/13 03:08:11;;;;;;;;;;;8.10;99.90;;;7.45;92.46;100599.84;4183875;28;19957;-68
2020/12/13 03:10:12;;;;;;;;;;;8.20;99.90;;;7.47;92.55;100600.50;4168269;28;19909;-67
2020/12/13 03:12:12;;;;;;;;;;;8.20;99.90;;;7.62;92.01;100598.28;4166726;28;19971;-68
2020/12/13 03:14:13;;;;;;;;;;;8.20;99.90;;;7.62;92.35;100588.63;4183379;28;20296;-67
2020/12/13 03:16:14;;;;;;;;;;;8.30;99.90;;;7.56;92.58;100585.72;4167436;28;19909;-68
2020/12/13 03:18:15;;;;;;;;;;;8.30;99.90;;;7.54;93.58;100591.13;4183822;28;19908;-68
2020/12/13 03:20:15;;;;;;;;;;;8.30;99.90;;;7.59;93.60;100586.28;4167269;28;19913;-67
2020/12/13 03:22:16;;;;;;;;;;;8.20;99.90;;;7.52;93.57;100585.19;4167934;28;19913;-69
2020/12/13 03:24:17;;;;;;;;;;;8.20;99.90;;;7.55;94.55;100594.59;4167197;28;20367;-69
2020/12/13 03:26:18;;;;;;;;;;;8.20;99.90;;;7.52;93.79;100587.81;4181807;28;19909;-67
2020/12/13 03:28:18;;;;;;;;;;;8.30;99.90;;;7.48;93.69;100590.84;4168697;28;19909;-67
2020/12/13 03:30:19;;;;;;;;;;;8.20;99.90;;;7.47;94.35;100584.78;4168619;28;19909;-67
2020/12/13 03:32:20;;;;;;;;;;;8.20;99.90;;;7.45;94.29;100586.72;4167580;28;20331;-67
2020/12/13 03:34:21;;;;;;;;;;;8.20;99.90;;;7.51;94.84;100580.91;4184080;28;19909;-67
2020/12/13 03:36:21;;;;;;;;;;;8.20;99.90;;;7.55;94.29;100579.66;4168662;28;19909;-67
2020/12/13 03:38:22;;;;;;;;;;;8.30;99.90;;;7.61;94.56;100575.66;4167345;28;19917;-67
2020/12/13 03:40:23;;;;;;;;;;;8.30;99.90;;;7.62;94.69;100586.00;4183781;28;19952;-67
2020/12/13 03:42:24;;;;;;;;;;;8.30;99.90;;;7.72;94.20;100575.47;4168774;28;19915;-67
2020/12/13 03:44:24;;;;;;;;;;;8.30;99.90;;;7.71;93.83;100566.78;4168552;28;19913;-67
2020/12/13 03:46:25;;;;;;;;;;;8.40;99.90;;;7.90;93.54;100576.41;4168638;28;20026;-67
2020/12/13 03:48:26;;;;;;;;;;;8.40;99.90;;;7.70;93.79;100565.13;4167351;28;19913;-67
2020/12/13 03:50:38;;;;;;;;;;;8.50;99.90;;;7.70;94.66;100574.81;4183879;28;19909;-67
2020/12/13 03:52:38;;;;;;;;;;;8.40;99.90;;;7.69;94.77;100563.47;4167473;28;19909;-67
2020/12/13 03:54:39;;;;;;;;;;;8.40;99.90;;;7.70;94.64;100559.88;4155258;28;19909;-68
2020/12/13 03:56:40;;;;;;;;;;;8.40;99.90;;;7.77;94.61;100560.94;4167177;28;19909;-67
2020/12/13 03:58:40;;;;;;;;;;;8.40;99.90;;;7.82;94.30;100563.16;4168492;28;19909;-67
2020/12/13 04:00:41;;;;;;;;;;;8.50;99.90;;;7.82;94.16;100550.84;4168552;28;19917;-67
2020/12/13 04:02:42;;;;;;;;;;;8.50;99.90;;;7.82;94.83;100548.22;4164767;28;19909;-67
2020/12/13 04:04:43;;;;;;;;;;;8.50;99.90;;;7.87;95.32;100539.09;4183494;28;20320;-67
2020/12/13 04:06:43;;;;;;;;;;;8.60;99.90;;;7.82;94.89;100534.28;4150821;28;19909;-67
2020/12/13 04:08:44;;;;;;;;;;;8.50;99.90;;;7.87;95.43;100532.03;4168440;28;19915;-67
2020/12/13 04:10:45;;;;;;;;;;;8.60;99.90;;;7.92;95.35;100527.19;4168170;28;20288;-67
2020/12/13 04:12:47;;;;;;;;;;;8.60;99.90;;;7.87;95.20;100524.16;4171050;28;20327;-67
2020/12/13 04:14:48;;;;;;;;;;;8.60;99.90;;;7.87;95.59;100528.59;4171719;28;19915;-68
2020/12/13 04:16:48;;;;;;;;;;;8.60;99.90;;;7.91;94.81;100516.84;4170333;28;19909;-67
2020/12/13 04:18:49;;;;;;;;;;;8.60;99.90;;;7.82;95.08;100526.41;4171511;28;19912;-67
2020/12/13 04:20:50;;;;;;;;;;;8.60;99.90;;;7.78;96.42;100510.09;4171565;28;19909;-67
2020/12/13 04:22:50;;;;;;;;;;;8.70;99.90;;;7.82;96.21;100519.31;4171450;28;20377;-67
2020/12/13 04:24:51;;;;;;;;;;;8.60;99.90;;;7.85;95.23;100504.28;4170158;28;19913;-67
2020/12/13 04:26:52;;;;;;;;;;;8.60;99.90;;;7.73;95.75;100507.09;4171058;28;19909;-67
2020/12/13 04:28:52;;;;;;;;;;;8.50;99.90;;;7.68;95.67;100501.41;4153623;28;19910;-67
2020/12/13 04:30:53;;;;;;;;;;;8.50;99.90;;;7.66;96.76;100500.75;4171382;28;19916;-68
2020/12/13 04:32:54;;;;;;;;;;;8.50;99.90;;;7.71;96.26;100482.75;4170126;28;19915;-67
2020/12/13 04:34:55;;;;;;;;;;;8.50;99.90;;;7.66;97.23;100492.03;4186583;28;20388;-67
2020/12/13 04:36:58;;;;;;;;;;;8.50;99.90;;;7.73;96.57;100493.97;4171138;28;19916;-67
2020/12/13 04:38:59;;;;;;;;;;;8.50;99.90;;;7.72;96.93;100476.53;4153484;28;19913;-67
2020/12/13 04:41:00;;;;;;;;;;;8.50;99.90;;;7.77;96.76;100481.34;4169713;28;19909;-68
2020/12/13 04:43:01;;;;;;;;;;;8.50;99.90;;;7.76;97.38;100466.59;4170006;28;19909;-67
2020/12/13 04:45:05;;;;;;;;;;;8.50;99.90;;;7.84;97.16;100476.34;4186330;28;19909;-67
2020/12/13 04:47:07;;;;;;;;;;;8.50;99.90;;;7.72;97.79;100476.53;4169983;28;19909;-67
2020/12/13 04:49:08;;;;;;;;;;;8.50;99.90;;;7.83;97.08;100470.28;4169902;28;19909;-67
2020/12/13 04:51:09;;;;;;;;;;;8.60;99.90;;;7.72;97.87;100467.84;4186299;28;19944;-67
2020/12/13 04:53:10;;;;;;;;;;;8.50;99.90;;;7.80;97.35;100467.94;4168053;28;19909;-68
2020/12/13 04:55:10;;;;;;;;;;;8.50;99.90;;;7.87;98.15;100471.66;4159312;28;19909;-67
2020/12/13 04:57:12;;;;;;;;;;;8.60;99.90;;;7.77;98.45;100463.81;4169790;28;20329;-67
2020/12/13 04:59:12;;;;;;;;;;;8.60;99.90;;;7.87;98.10;100463.78;4169661;28;19975;-68
2020/12/13 05:01:13;;;;;;;;;;;8.60;99.90;;;7.90;97.94;100466.09;4185952;28;20303;-67
2020/12/13 05:03:15;;;;;;;;;;;8.70;99.90;;;7.77;98.44;100458.56;4168002;28;19920;-67
2020/12/13 05:05:19;;;;;;;;;;;8.60;99.90;;;7.93;98.34;100463.19;4170822;28;19971;-67
2020/12/13 05:07:21;;;;;;;;;;;8.70;99.90;;;7.84;99.07;100450.94;4153465;28;20285;-68
2020/12/13 05:09:22;;;;;;;;;;;8.70;99.90;;;8.01;98.09;100457.19;4170661;28;20291;-68
2020/12/13 05:11:23;;;;;;;;;;;8.70;99.90;;;8.02;98.53;100461.47;4169388;28;19913;-67
2020/12/13 05:13:24;;;;;;;;;;;8.70;99.90;;;7.94;99.17;100450.88;4170627;28;19917;-67
2020/12/13 05:15:24;;;;;;;;;;;8.80;99.90;;;7.89;98.99;100464.44;4169396;28;20027;-67
2020/12/13 05:17:26;;;;;;;;;;;8.80;99.90;;;7.93;99.02;100436.09;4169466;28;19920;-68
2020/12/13 05:19:27;;;;;;;;;;;8.70;99.90;;;7.94;99.03;100448.25;4185902;28;20417;-68
2020/12/13 05:21:27;;;;;;;;;;;8.70;99.90;;;8.06;98.90;100447.91;4169397;28;19951;-68
2020/12/13 05:23:29;;;;;;;;;;;8.80;99.90;;;8.03;98.52;100432.47;4168466;28;19913;-67
2020/12/13 05:25:31;;;;;;;;;;;8.80;99.90;;;8.01;98.87;100444.06;4170134;28;19909;-67
2020/12/13 05:27:39;;;;;;;;;;;8.80;99.90;;;7.92;99.84;100444.94;4170554;28;19916;-67
2020/12/13 05:29:44;;;;;;;;;;;8.70;99.90;;;8.04;99.84;100435.88;4169312;28;20319;-68
2020/12/13 05:31:45;;;;;;;;;;;8.80;99.90;;;8.07;99.20;100432.97;4169359;28;19909;-68
2020/12/13 05:34:07;;;;;;;;;;;8.80;99.90;;;8.07;99.54;100436.41;4169095;28;19916;-68
2020/12/13 05:36:10;;;;;;;;;;;8.80;99.90;;;8.14;99.23;100434.03;4185518;28;19916;-67
2020/12/13 05:38:16;;;;;;;;;;;8.90;99.90;;;8.07;99.98;100423.28;4185331;28;19958;-67
2020/12/13 05:40:16;;;;;;;;;;;8.90;99.90;;;8.12;99.60;100420.22;4168671;28;19975;-68
2020/12/13 05:42:24;;;;;;;;;;;8.90;99.90;;;8.22;99.63;100424.44;4169130;28;19909;-68
2020/12/13 05:47:15;;;;;;;;;;;8.90;99.90;;;8.18;99.68;100417.81;4169256;28;19909;-67
2020/12/13 05:49:29;;;;;;;;;;;9.00;99.90;;;8.09;100.00;100421.34;4156418;28;19909;-68
2020/12/13 05:51:43;;;;;;;;;;;8.90;99.90;;;8.05;100.00;100411.28;4169981;28;19916;-67
2020/12/13 05:53:44;;;;;;;;;;;8.90;99.90;;;8.06;99.91;100413.78;4163715;28;19916;-67
2020/12/13 05:55:45;;;;;;;;;;;8.90;99.90;;;8.08;100.00;100406.56;4178514;28;19931;-67
2020/12/13 05:57:48;;;;;;;;;;;8.90;99.90;;;8.14;100.00;100405.13;4168800;28;19917;-67
2020/12/13 05:59:49;;;;;;;;;;;8.90;99.90;;;8.12;99.78;100401.84;4185336;28;19908;-68
2020/12/13 06:01:53;;;;;;;;;;;8.90;99.90;;;8.16;100.00;100395.28;4168741;28;19916;-67
2020/12/13 06:03:54;;;;;;;;;;;8.90;99.90;;;8.12;99.85;100397.38;4183026;28;19913;-68
2020/12/13 06:06:01;;;;;;;;;;;8.90;99.90;;;8.24;99.99;100400.66;4168743;28;19909;-67
2020/12/13 06:08:04;;;;;;;;;;;8.90;99.90;;;8.19;99.77;100387.13;4168847;28;20446;-68
2020/12/13 06:10:06;;;;;;;;;;;8.90;99.90;;;8.18;100.00;100390.75;4168172;28;19943;-68
2020/12/13 06:12:09;;;;;;;;;;;9.00;99.90;;;8.09;100.00;100379.31;4168768;28;19952;-68
2020/12/13 06:14:28;;;;;;;;;;;8.90;99.90;;;8.12;100.00;100380.81;4184804;28;19916;-67
2020/12/13 06:16:28;;;;;;;;;;;8.90;99.90;;;8.19;100.00;100371.34;4169757;28;19920;-67
2020/12/13 06:18:29;;;;;;;;;;;8.90;99.90;;;8.18;100.00;100370.53;4151966;28;19910;-67
2020/12/13 06:20:31;;;;;;;;;;;9.00;99.90;;;8.18;100.00;100372.34;4169499;28;19909;-67
2020/12/13 06:22:32;;;;;;;;;;;9.00;99.90;;;8.24;100.00;100363.88;4168450;28;19925;-67
2020/12/13 06:24:33;;;;;;;;;;;9.00;99.90;;;8.20;100.00;100357.25;4168344;28;19913;-67
2020/12/13 06:26:35;;;;;;;;;;;9.00;99.90;;;8.17;100.00;100363.63;4169212;28;19935;-67
2020/12/13 06:28:35;;;;;;;;;;;9.00;99.90;;;8.19;100.00;100355.59;4168229;28;19916;-67
2020/12/13 06:30:37;;;;;;;;;;;9.00;99.90;;;8.18;100.00;100359.22;4168306;28;20392;-67
2020/12/13 06:32:41;;;;;;;;;;;9.00;99.90;;;8.25;100.00;100347.94;4169409;28;20261;-67
2020/12/13 06:34:44;;;;;;;;;;;9.00;99.90;;;8.26;100.00;100346.97;4167418;28;19916;-67
2020/12/13 06:36:45;;;;;;;;;;;9.10;99.90;;;8.24;100.00;100350.72;4151438;28;19918;-67
2020/12/13 06:38:46;;;;;;;;;;;9.10;99.90;;;8.35;100.00;100355.78;4169279;28;19909;-67
2020/12/13 06:40:48;;;;;;;;;;;9.10;99.90;;;8.26;100.00;100357.47;4167883;28;20445;-67
2020/12/13 06:42:50;;;;;;;;;;;9.20;99.90;;;8.15;100.00;100351.63;4184505;28;19954;-67
2020/12/13 06:45:05;;;;;;;;;;;9.10;99.90;;;8.22;100.00;100356.13;4169038;28;20007;-67
2020/12/13 06:47:23;;;;;;;;;;;9.10;99.90;;;8.30;100.00;100358.03;4168055;28;19909;-67
2020/12/13 06:49:24;;;;;;;;;;;9.10;99.90;;;8.33;100.00;100344.59;4167982;28;20011;-67
2020/12/13 06:51:25;;;;;;;;;;;9.10;99.90;;;8.24;100.00;100338.38;4168941;28;20384;-67
2020/12/13 06:53:26;;;;;;;;;;;9.10;99.90;;;8.34;100.00;100352.31;4165200;28;20391;-67
2020/12/13 06:55:31;;;;;;;;;;;9.10;99.90;;;8.34;100.00;100344.44;4159417;28;19913;-67
2020/12/13 06:57:35;;;;;;;;;;;9.10;99.90;;;8.30;100.00;100352.78;4167892;28;19909;-67
2020/12/13 06:59:43;;;;;;;;;;;9.10;99.90;;;8.29;100.00;100351.13;4151290;28;19956;-68
2020/12/13 07:01:46;;;;;;;;;;;9.10;99.90;;;8.37;100.00;100345.94;4167884;28;19913;-67
2020/12/13 07:03:47;;;;;;;;;;;9.20;99.90;;;8.40;100.00;100345.63;4165583;28;19990;-68
2020/12/13 07:05:48;;;;;;;;;;;9.20;99.90;;;8.54;100.00;100342.44;4168927;28;19909;-67
2020/12/13 07:07:52;;;;;;;;;;;9.20;99.90;;;8.50;100.00;100342.91;4168756;28;19909;-67
2020/12/13 07:09:53;;;;;;;;;;;9.30;99.90;;;8.46;100.00;100344.19;4167401;28;20066;-67
2020/12/13 07:11:55;;;;;;;;;;;9.30;99.90;;;8.58;100.00;100341.19;4168892;28;19967;-67
2020/12/13 07:14:04;;;;;;;;;;;9.30;99.90;;;8.67;100.00;100327.13;4167501;28;19917;-67
2020/12/13 07:16:13;;;;;;;;;;;9.30;99.90;;;8.66;100.00;100325.44;4151232;28;19913;-68
2020/12/13 07:18:16;;;;;;;;;;;9.40;99.90;;;8.58;100.00;100320.16;4167728;28;19909;-67
2020/12/13 07:20:19;;;;;;;;;;;9.40;99.90;;;8.65;100.00;100326.44;4167687;28;19920;-67
2020/12/13 07:22:19;;;;;;;;;;;9.40;99.90;;;8.66;100.00;100319.41;4167537;28;19916;-67
2020/12/13 07:24:21;;;;;;;;;;;9.40;99.90;;;8.75;100.00;100311.38;4167598;28;20376;-67
2020/12/13 07:26:22;;;;;;;;;;;9.50;99.90;;;8.75;100.00;100310.59;4183796;28;20314;-67
2020/12/13 07:28:23;;;;;;;;;;;9.50;99.90;;;8.67;100.00;100300.81;4167461;28;20351;-67
2020/12/13 07:30:24;;;;;;;;;;;9.50;99.90;;;8.67;100.00;100300.81;4183945;28;19915;-67
2020/12/13 07:32:25;;;;;;;;;;;9.50;99.90;;;8.74;100.00;100299.22;4167600;28;19948;-67
2020/12/13 07:34:25;;;;;;;;;;;9.50;99.90;;;8.78;100.00;100303.19;4167403;28;19932;-67
2020/12/13 07:36:26;;;;;;;;;;;9.50;99.90;;;8.68;100.00;100301.66;4167286;28;19912;-67
2020/12/13 07:38:28;;;;;;;;;;;9.50;99.90;;;8.77;100.00;100298.94;4168452;28;19913;-67
2020/12/13 07:40:29;;;;;;;;;;;9.60;99.90;;;8.74;100.00;100293.16;4167215;28;19944;-67
2020/12/13 07:42:31;;;;;;;;;;;9.60;99.90;;;8.76;100.00;100294.63;4151001;28;19909;-67
2020/12/13 07:44:31;;;;;;;;;;;9.60;99.90;;;8.82;100.00;100301.91;4183811;28;20071;-67
2020/12/13 07:46:34;;;;;;;;;;;9.60;99.90;;;8.86;100.00;100291.91;4168163;28;20384;-67
2020/12/13 07:48:35;;;;;;;;;;;9.70;99.90;;;8.89;100.00;100297.69;4171948;28;19917;-67
2020/12/13 07:50:46;;;;;;;;;;;9.70;99.90;;;8.93;100.00;100298.16;4171886;28;20283;-67
2020/12/13 07:52:47;;;;;;;;;;;9.70;99.90;;;8.92;100.00;100279.94;4170647;28;20433;-68
2020/12/13 07:54:48;;;;;;;;;;;9.80;99.90;;;8.88;100.00;100301.28;4158328;28;19909;-67
2020/12/13 07:56:56;;;;;;;;;;;9.70;99.90;;;8.90;100.00;100291.41;4170239;28;19909;-67
2020/12/13 07:59:19;;;;;;;;;;;9.70;99.90;;;8.94;100.00;100293.75;4171867;28;19920;-67
2020/12/13 08:01:23;;;;;;;;;;;9.70;99.90;;;9.01;100.00;100289.50;4171619;28;19909;-67
2020/12/13 08:03:23;;;;;;;;;;;9.70;99.90;;;8.91;100.00;100300.13;4168103;28;19949;-68
2020/12/13 08:05:28;;;;;;;;;;;9.80;99.90;;;9.06;100.00;100293.31;4171801;28;19909;-67
2020/12/13 08:07:30;;;;;;;;;;;9.80;99.90;;;9.03;100.00;100292.81;4171629;28;19909;-67
2020/12/13 08:09:31;;;;;;;;;;;9.80;99.90;;;9.12;100.00;100297.94;4171429;28;19941;-67
2020/12/13 08:11:32;;;;;;;;;;;9.90;99.90;;;9.01;100.00;100281.63;4171324;28;19909;-67
2020/12/13 08:13:32;;;;;;;;;;;9.90;99.90;;;9.10;100.00;100293.84;4153698;28;20015;-67
2020/12/13 08:15:33;;;;;;;;;;;9.90;99.90;;;9.14;100.00;100289.91;4169973;28;19939;-67
2020/12/13 08:17:35;;;;;;;;;;;9.90;99.90;;;9.03;100.00;100277.84;4186719;28;20421;-67
2020/12/13 08:19:35;;;;;;;;;;;9.90;99.90;;;9.24;100.00;100290.59;4186697;28;20315;-67
2020/12/13 08:21:46;;;;;;;;;;;9.90;99.90;;;9.13;100.00;100275.09;4171341;28;19913;-67
2020/12/13 08:23:48;;;;;;;;;;;10.00;99.90;;;9.14;100.00;100280.19;4169943;28;19916;-68
2020/12/13 08:25:48;;;;;;;;;;;9.90;99.90;;;9.11;100.00;100266.56;4169895;28;19963;-67
2020/12/13 08:27:50;;;;;;;;;;;9.90;99.90;;;9.23;100.00;100276.63;4170120;28;20319;-67
2020/12/13 08:29:51;;;;;;;;;;;10.00;99.90;;;9.27;100.00;100270.06;4186442;28;19909;-68
2020/12/13 08:31:52;;;;;;;;;;;10.00;99.90;;;9.44;100.00;100281.44;4169792;28;19909;-67
2020/12/13 08:34:00;;;;;;;;;;;10.10;99.90;;;9.42;100.00;100280.78;4186601;28;19909;-67
2020/12/13 08:36:15;;;;;;;;;;;10.20;99.90;;;9.45;100.00;100281.31;4170089;28;19909;-67
2020/12/13 08:38:15;;;;;;;;;;;10.20;99.90;;;9.45;100.00;100277.84;4169800;28;19909;-67
2020/12/13 08:40:16;;;;;;;;;;;10.20;99.90;;;9.56;100.00;100271.47;4165638;28;19939;-67
2020/12/13 08:42:24;;;;;;;;;;;10.30;99.90;;;9.54;100.00;100269.00;4203010;28;19912;-67
2020/12/13 08:44:44;;;;;;;;;;;10.40;99.90;;;9.68;100.00;100265.72;4169624;28;19913;-67
2020/12/13 08:46:48;;;;;;;;;;;10.40;99.90;;;9.73;100.00;100265.25;4185707;28;20003;-67
2020/12/13 08:48:50;;;;;;;;;;;10.50;99.90;;;9.76;100.00;100270.19;4202453;28;19908;-67
2020/12/13 08:51:04;;;;;;;;;;;10.50;99.90;;;9.83;100.00;100266.72;4186170;28;19909;-67
2020/12/13 08:53:24;;;;;;;;;;;10.60;99.90;;;9.85;100.00;100272.69;4185000;28;19908;-68
2020/12/13 08:55:26;;;;;;;;;;;10.60;99.90;;;9.90;100.00;100273.00;4192772;28;20007;-67
2020/12/13 08:57:36;;;;;;;;;;;10.60;99.90;;;9.84;100.00;100265.75;4186896;28;20423;-67
2020/12/13 08:59:36;;;;;;;;;;;10.70;99.90;;;9.83;100.00;100264.09;4185578;28;19917;-67
2020/12/13 09:01:39;;;;;;;;;;;10.70;99.90;;;9.81;100.00;100263.44;4187382;28;19909;-68
2020/12/13 09:03:40;;;;;;;;;;;10.60;99.90;;;9.81;100.00;100249.44;4175226;28;20000;-68
2020/12/13 09:05:40;;;;;;;;;;;10.70;99.90;;;10.00;100.00;100271.03;4176639;28;19966;-69
2020/12/13 09:07:44;;;;;;;;;;;10.80;99.90;;;9.94;100.00;100257.72;4170904;28;19913;-68
2020/12/13 09:09:45;;;;;;;;;;;10.70;99.90;;;10.02;100.00;100262.97;4185274;28;19917;-68
2020/12/13 09:11:46;;;;;;;;;;;10.80;99.90;;;10.11;100.00;100250.63;4185771;28;19916;-67
2020/12/13 09:13:49;;;;;;;;;;;10.90;99.90;;;10.12;100.00;100249.63;4202391;28;19927;-68
2020/12/13 09:15:50;;;;;;;;;;;11.00;99.90;;;10.13;100.00;100246.00;4185045;28;19913;-67
2020/12/13 09:17:55;;;;;;;;;;;11.00;99.90;;;10.21;100.00;100240.78;4186943;28;19917;-68
2020/12/13 09:19:56;;;;;;;;;;;11.00;99.90;;;10.31;100.00;100233.50;4187145;28;19991;-68
2020/12/13 09:21:59;;;;;;;;;;;11.20;99.90;;;10.34;100.00;100219.97;4186875;28;19913;-69
2020/12/13 09:23:59;;;;;;;;;;;11.20;99.90;;;10.38;100.00;100223.94;4185406;28;20459;-69
2020/12/13 09:26:00;;;;;;;;;;;11.30;99.90;;;10.41;100.00;100226.25;4186594;28;19909;-68
2020/12/13 09:28:01;;;;;;;;;;;11.30;99.90;;;10.54;100.00;100231.84;4185715;28;20509;-68
2020/12/13 09:30:02;;;;;;;;;;;11.40;99.90;;;10.51;100.00;100222.41;4186798;28;19924;-68